Airport Information

METAR/TAF »

TAF 22.07.2018

TAF EGTC 221401Z 2215/2217 31006KT 9999 FEW045

METAR 22.07.2018

EGTC 221620Z VRB03KT 9999 BKN049 26/16 Q1015

Airport Information

Runway TORA (m) TODA (m) ASDA (m)

LDA (m)

03 1799 1799 1799 1594
21 1672 1799 1672 1672

 

Nav Aids

  • ILS
  • NDB
  • GNSS
  • DME

Opening Hours

  • 24 hour Availability (Subject to prior notice and availability of ATC/RFFS. Fees will apply.)

  • Monday to Friday - 08:00 to 18:30 local time. There will, on occasion, be restrictions to our opening hours and these restrictions will be notified by NOTAM. 

  • Saturday, Sunday, Public Holiday - 09:00 to 18:00 local time

Please check again for updates or contact us on telephone: + 44 (0) 1234 758150 or email : airport@cranfield.ac.uk

General Information

  • Fire Category - RFF Category 2, with up to RFF Category 6 on request.
  • Fuel - Jet A1 and Avgas.
  • Handling Services - full range.
  • Winter operation capability.
  • Car parking - free and secure.
  • Frequencies : Departure ATIS 121.880 / Approach 122.855 / Tower 134.930.
  • ICAO Code : EGTC.